sensor_id;sensor_type;location;lat;lon;timestamp;pressure;altitude;pressure_sealevel;temperature
61189;BMP280;47054;39.716;2.904;2023-04-03T00:00:18;100472.69;;;22.01
61189;BMP280;47054;39.716;2.904;2023-04-03T00:03:03;100469.22;;;22.00
61189;BMP280;47054;39.716;2.904;2023-04-03T00:05:47;100471.13;;;22.00
61189;BMP280;47054;39.716;2.904;2023-04-03T00:08:32;100464.97;;;21.99
61189;BMP280;47054;39.716;2.904;2023-04-03T00:11:17;100471.13;;;22.00
61189;BMP280;47054;39.716;2.904;2023-04-03T00:14:02;100464.97;;;21.99
61189;BMP280;47054;39.716;2.904;2023-04-03T00:16:47;100456.88;;;21.99
61189;BMP280;47054;39.716;2.904;2023-04-03T00:19:31;100451.47;;;21.99
61189;BMP280;47054;39.716;2.904;2023-04-03T00:22:16;100451.13;;;21.94
61189;BMP280;47054;39.716;2.904;2023-04-03T00:25:00;100449.53;;;22.00
61189;BMP280;47054;39.716;2.904;2023-04-03T00:27:45;100454.94;;;22.00
61189;BMP280;47054;39.716;2.904;2023-04-03T00:30:31;100455.34;;;21.98
61189;BMP280;47054;39.716;2.904;2023-04-03T00:33:15;100452.66;;;21.98
61189;BMP280;47054;39.716;2.904;2023-04-03T00:36:06;100442.59;;;21.99
61189;BMP280;47054;39.716;2.904;2023-04-03T00:38:50;100444.56;;;21.98
61189;BMP280;47054;39.716;2.904;2023-04-03T00:41:35;100439.16;;;21.98
61189;BMP280;47054;39.716;2.904;2023-04-03T00:47:30;100435.28;;;21.92
61189;BMP280;47054;39.716;2.904;2023-04-03T00:50:15;100439.16;;;21.95
61189;BMP280;47054;39.716;2.904;2023-04-03T00:53:00;100436.81;;;21.97
61189;BMP280;47054;39.716;2.904;2023-04-03T00:55:47;100429.50;;;21.97
61189;BMP280;47054;39.716;2.904;2023-04-03T00:58:47;100418.69;;;21.97
61189;BMP280;47054;39.716;2.904;2023-04-03T01:01:32;100417.16;;;21.96
61189;BMP280;47054;39.716;2.904;2023-04-03T01:07:19;100411.75;;;21.96
61189;BMP280;47054;39.716;2.904;2023-04-03T01:10:09;100412.19;;;21.95
61189;BMP280;47054;39.716;2.904;2023-04-03T01:12:54;100403.28;;;21.94
61189;BMP280;47054;39.716;2.904;2023-04-03T01:15:39;100411.41;;;21.94
61189;BMP280;47054;39.716;2.904;2023-04-03T01:18:24;100405.22;;;21.94
61189;BMP280;47054;39.716;2.904;2023-04-03T01:24:30;100402.88;;;21.96
61189;BMP280;47054;39.716;2.904;2023-04-03T01:27:16;100393.66;;;21.90
61189;BMP280;47054;39.716;2.904;2023-04-03T01:30:01;100408.28;;;21.92
61189;BMP280;47054;39.716;2.904;2023-04-03T01:32:47;100392.88;;;21.93
61189;BMP280;47054;39.716;2.904;2023-04-03T01:35:31;100401.75;;;21.93
61189;BMP280;47054;39.716;2.904;2023-04-03T01:38:16;100395.56;;;21.93
61189;BMP280;47054;39.716;2.904;2023-04-03T01:41:01;100399.03;;;21.93
61189;BMP280;47054;39.716;2.904;2023-04-03T01:43:47;100382.06;;;21.93
61189;BMP280;47054;39.716;2.904;2023-04-03T01:46:32;100392.09;;;21.92
61189;BMP280;47054;39.716;2.904;2023-04-03T01:49:16;100381.28;;;21.92
61189;BMP280;47054;39.716;2.904;2023-04-03T01:52:01;100382.50;;;21.91
61189;BMP280;47054;39.716;2.904;2023-04-03T01:54:45;100373.63;;;21.91
61189;BMP280;47054;39.716;2.904;2023-04-03T01:57:30;100379.78;;;21.91
61189;BMP280;47054;39.716;2.904;2023-04-03T02:00:15;100368.56;;;21.93
61189;BMP280;47054;39.716;2.904;2023-04-03T02:03:00;100364.31;;;21.92
61189;BMP280;47054;39.716;2.904;2023-04-03T02:05:45;100353.16;;;21.90
61189;BMP280;47054;39.716;2.904;2023-04-03T02:08:30;100352.81;;;21.91
61189;BMP280;47054;39.716;2.904;2023-04-03T02:11:15;100349.31;;;21.91
61189;BMP280;47054;39.716;2.904;2023-04-03T02:14:00;100336.97;;;21.90
61189;BMP280;47054;39.716;2.904;2023-04-03T02:16:44;100332.34;;;21.90
61189;BMP280;47054;39.716;2.904;2023-04-03T02:19:29;100331.56;;;21.90
61189;BMP280;47054;39.716;2.904;2023-04-03T02:22:14;100330.78;;;21.89
61189;BMP280;47054;39.716;2.904;2023-04-03T02:24:59;100328.88;;;21.90
61189;BMP280;47054;39.716;2.904;2023-04-03T02:27:45;100328.09;;;21.89
61189;BMP280;47054;39.716;2.904;2023-04-03T02:30:29;100330.78;;;21.89
61189;BMP280;47054;39.716;2.904;2023-04-03T02:33:14;100326.53;;;21.88
61189;BMP280;47054;39.716;2.904;2023-04-03T02:35:59;100313.50;;;21.83
61189;BMP280;47054;39.716;2.904;2023-04-03T02:38:44;100334.66;;;21.88
61189;BMP280;47054;39.716;2.904;2023-04-03T02:41:29;100327.31;;;21.89
61189;BMP280;47054;39.716;2.904;2023-04-03T02:44:20;100323.09;;;21.88
61189;BMP280;47054;39.716;2.904;2023-04-03T02:47:04;100321.56;;;21.87
61189;BMP280;47054;39.716;2.904;2023-04-03T02:49:50;100325.81;;;21.88
61189;BMP280;47054;39.716;2.904;2023-04-03T02:52:34;100318.88;;;21.87
61189;BMP280;47054;39.716;2.904;2023-04-03T02:55:20;100316.19;;;21.87
61189;BMP280;47054;39.716;2.904;2023-04-03T02:58:07;100305.38;;;21.87
61189;BMP280;47054;39.716;2.904;2023-04-03T03:00:52;100314.25;;;21.87
61189;BMP280;47054;39.716;2.904;2023-04-03T03:03:37;100310.00;;;21.86
61189;BMP280;47054;39.716;2.904;2023-04-03T03:06:22;100324.28;;;21.87
61189;BMP280;47054;39.716;2.904;2023-04-03T03:09:06;100313.84;;;21.85
61189;BMP280;47054;39.716;2.904;2023-04-03T03:11:51;100315.41;;;21.86
61189;BMP280;47054;39.716;2.904;2023-04-03T03:14:35;100316.53;;;21.85
61189;BMP280;47054;39.716;2.904;2023-04-03T03:17:20;100310.38;;;21.85
61189;BMP280;47054;39.716;2.904;2023-04-03T03:20:06;100303.84;;;21.82
61189;BMP280;47054;39.716;2.904;2023-04-03T03:22:51;100313.06;;;21.85
61189;BMP280;47054;39.716;2.904;2023-04-03T03:25:39;100305.75;;;21.85
61189;BMP280;47054;39.716;2.904;2023-04-03T03:28:25;100313.50;;;21.83
61189;BMP280;47054;39.716;2.904;2023-04-03T03:31:11;100306.19;;;21.84
61189;BMP280;47054;39.716;2.904;2023-04-03T03:33:57;100308.09;;;21.83
61189;BMP280;47054;39.716;2.904;2023-04-03T03:36:42;100302.31;;;21.81
61189;BMP280;47054;39.716;2.904;2023-04-03T03:39:27;100308.09;;;21.83
61189;BMP280;47054;39.716;2.904;2023-04-03T03:42:11;100303.84;;;21.82
61189;BMP280;47054;39.716;2.904;2023-04-03T03:44:56;100302.31;;;21.81
61189;BMP280;47054;39.716;2.904;2023-04-03T03:47:40;100305.78;;;21.82
61189;BMP280;47054;39.716;2.904;2023-04-03T03:50:25;100298.44;;;21.82
61189;BMP280;47054;39.716;2.904;2023-04-03T03:53:10;100300.38;;;21.82
61189;BMP280;47054;39.716;2.904;2023-04-03T03:55:55;100299.59;;;21.81
61189;BMP280;47054;39.716;2.904;2023-04-03T03:58:42;100299.59;;;21.81
61189;BMP280;47054;39.716;2.904;2023-04-03T04:01:26;100302.31;;;21.81
61189;BMP280;47054;39.716;2.904;2023-04-03T04:04:11;100303.47;;;21.80
61189;BMP280;47054;39.716;2.904;2023-04-03T04:06:55;100301.56;;;21.81
61189;BMP280;47054;39.716;2.904;2023-04-03T04:09:40;100304.28;;;21.77
61189;BMP280;47054;39.716;2.904;2023-04-03T04:12:26;100312.34;;;21.81
61189;BMP280;47054;39.716;2.904;2023-04-03T04:15:11;100307.34;;;21.79
61189;BMP280;47054;39.716;2.904;2023-04-03T04:17:57;100310.81;;;21.80
61189;BMP280;47054;39.716;2.904;2023-04-03T04:20:41;100304.69;;;21.76
61189;BMP280;47054;39.716;2.904;2023-04-03T04:23:26;100306.56;;;21.79
61189;BMP280;47054;39.716;2.904;2023-04-03T04:26:11;100305.03;;;21.78
61189;BMP280;47054;39.716;2.904;2023-04-03T04:28:57;100307.72;;;21.78
61189;BMP280;47054;39.716;2.904;2023-04-03T04:31:42;100296.94;;;21.74
61189;BMP280;47054;39.716;2.904;2023-04-03T04:34:27;100288.09;;;21.77
61189;BMP280;47054;39.716;2.904;2023-04-03T04:37:11;100292.31;;;21.78
61189;BMP280;47054;39.716;2.904;2023-04-03T04:39:56;100293.47;;;21.77
61189;BMP280;47054;39.716;2.904;2023-04-03T04:42:41;100307.72;;;21.78
61189;BMP280;47054;39.716;2.904;2023-04-03T04:45:26;100298.09;;;21.77
61189;BMP280;47054;39.716;2.904;2023-04-03T04:48:11;100292.72;;;21.77
61189;BMP280;47054;39.716;2.904;2023-04-03T04:50:56;100293.09;;;21.75
61189;BMP280;47054;39.716;2.904;2023-04-03T04:53:41;100291.56;;;21.74
61189;BMP280;47054;39.716;2.904;2023-04-03T04:56:29;100290.41;;;21.75
61189;BMP280;47054;39.716;2.904;2023-04-03T04:59:15;100290.81;;;21.74
61189;BMP280;47054;39.716;2.904;2023-04-03T05:02:00;100291.56;;;21.74
61189;BMP280;47054;39.716;2.904;2023-04-03T05:04:45;100288.09;;;21.74
61189;BMP280;47054;39.716;2.904;2023-04-03T05:07:36;100286.56;;;21.73
61189;BMP280;47054;39.716;2.904;2023-04-03T05:10:21;100289.25;;;21.73
61189;BMP280;47054;39.716;2.904;2023-04-03T05:13:06;100285.41;;;21.74
61189;BMP280;47054;39.716;2.904;2023-04-03T05:15:50;100285.78;;;21.72
61189;BMP280;47054;39.716;2.904;2023-04-03T05:18:35;100282.34;;;21.72
61189;BMP280;47054;39.716;2.904;2023-04-03T05:21:25;100281.56;;;21.71
61189;BMP280;47054;39.716;2.904;2023-04-03T05:24:12;100292.34;;;21.71
61189;BMP280;47054;39.716;2.904;2023-04-03T05:27:00;100288.91;;;21.71
61189;BMP280;47054;39.716;2.904;2023-04-03T05:29:46;100290.06;;;21.69
61189;BMP280;47054;39.716;2.904;2023-04-03T05:32:35;100285.44;;;21.70
61189;BMP280;47054;39.716;2.904;2023-04-03T05:35:42;100286.97;;;21.67
61189;BMP280;47054;39.716;2.904;2023-04-03T05:38:32;100287.72;;;21.68
61189;BMP280;47054;39.716;2.904;2023-04-03T05:41:17;100293.91;;;21.68
61189;BMP280;47054;39.716;2.904;2023-04-03T05:44:04;100297.78;;;21.67
61189;BMP280;47054;39.716;2.904;2023-04-03T05:46:49;100295.81;;;21.68
61189;BMP280;47054;39.716;2.904;2023-04-03T05:49:34;100295.81;;;21.68
61189;BMP280;47054;39.716;2.904;2023-04-03T05:52:22;100305.47;;;21.69
61189;BMP280;47054;39.716;2.904;2023-04-03T05:55:08;100309.75;;;21.66
61189;BMP280;47054;39.716;2.904;2023-04-03T05:57:53;100311.25;;;21.67
61189;BMP280;47054;39.716;2.904;2023-04-03T06:00:39;100312.44;;;21.66
61189;BMP280;47054;39.716;2.904;2023-04-03T06:03:24;100312.44;;;21.66
61189;BMP280;47054;39.716;2.904;2023-04-03T06:06:13;100300.88;;;21.66
61189;BMP280;47054;39.716;2.904;2023-04-03T06:08:58;100312.44;;;21.66
61189;BMP280;47054;39.716;2.904;2023-04-03T06:11:43;100307.81;;;21.67
61189;BMP280;47054;39.716;2.904;2023-04-03T06:14:28;100321.69;;;21.65
61189;BMP280;47054;39.716;2.904;2023-04-03T06:17:12;100326.31;;;21.65
61189;BMP280;47054;39.716;2.904;2023-04-03T06:19:57;100323.59;;;21.65
61189;BMP280;47054;39.716;2.904;2023-04-03T06:22:43;100320.13;;;21.64
61189;BMP280;47054;39.716;2.904;2023-04-03T06:25:29;100325.53;;;21.64
61189;BMP280;47054;39.716;2.904;2023-04-03T06:28:15;100329.44;;;21.63
61189;BMP280;47054;39.716;2.904;2023-04-03T06:31:00;100330.94;;;21.64
61189;BMP280;47054;39.716;2.904;2023-04-03T06:33:44;100317.09;;;21.62
61189;BMP280;47054;39.716;2.904;2023-04-03T06:36:29;100320.56;;;21.63
61189;BMP280;47054;39.716;2.904;2023-04-03T06:39:19;100325.53;;;21.64
61189;BMP280;47054;39.716;2.904;2023-04-03T06:42:08;100334.41;;;21.61
61189;BMP280;47054;39.716;2.904;2023-04-03T06:44:56;100319.00;;;21.62
61189;BMP280;47054;39.716;2.904;2023-04-03T06:47:41;100318.22;;;21.61
61189;BMP280;47054;39.716;2.904;2023-04-03T06:50:26;100328.25;;;21.61
61189;BMP280;47054;39.716;2.904;2023-04-03T06:53:11;100332.88;;;21.64
61189;BMP280;47054;39.716;2.904;2023-04-03T06:55:56;100332.50;;;21.62
61189;BMP280;47054;39.716;2.904;2023-04-03T06:58:41;100322.47;;;21.62
61189;BMP280;47054;39.716;2.904;2023-04-03T07:01:27;100331.34;;;21.63
61189;BMP280;47054;39.716;2.904;2023-04-03T07:04:12;100314.38;;;21.62
61189;BMP280;47054;39.716;2.904;2023-04-03T07:06:57;100327.09;;;21.62
61189;BMP280;47054;39.716;2.904;2023-04-03T07:09:42;100329.81;;;21.62
61189;BMP280;47054;39.716;2.904;2023-04-03T07:12:27;100320.56;;;21.63
61189;BMP280;47054;39.716;2.904;2023-04-03T07:15:11;100334.06;;;21.63
61189;BMP280;47054;39.716;2.904;2023-04-03T07:17:57;100338.66;;;21.62
61189;BMP280;47054;39.716;2.904;2023-04-03T07:20:41;100335.19;;;21.62
61189;BMP280;47054;39.716;2.904;2023-04-03T07:23:26;100327.88;;;21.62
61189;BMP280;47054;39.716;2.904;2023-04-03T07:26:11;100341.38;;;21.62
61189;BMP280;47054;39.716;2.904;2023-04-03T07:28:55;100338.66;;;21.62
61189;BMP280;47054;39.716;2.904;2023-04-03T07:31:40;100333.28;;;21.62
61189;BMP280;47054;39.716;2.904;2023-04-03T07:34:26;100330.56;;;21.62
61189;BMP280;47054;39.716;2.904;2023-04-03T07:37:10;100331.34;;;21.63
61189;BMP280;47054;39.716;2.904;2023-04-03T07:39:55;100323.28;;;21.59
61189;BMP280;47054;39.716;2.904;2023-04-03T07:42:41;100329.44;;;21.63
61189;BMP280;47054;39.716;2.904;2023-04-03T07:45:26;100324.03;;;21.63
61189;BMP280;47054;39.716;2.904;2023-04-03T07:48:11;100328.66;;;21.63
61189;BMP280;47054;39.716;2.904;2023-04-03T07:50:59;100331.69;;;21.65
61189;BMP280;47054;39.716;2.904;2023-04-03T07:53:45;100321.34;;;21.63
61189;BMP280;47054;39.716;2.904;2023-04-03T07:56:30;100323.25;;;21.63
61189;BMP280;47054;39.716;2.904;2023-04-03T07:59:16;100312.47;;;21.63
61189;BMP280;47054;39.716;2.904;2023-04-03T08:02:00;100318.63;;;21.63
61189;BMP280;47054;39.716;2.904;2023-04-03T08:04:45;100317.09;;;21.62
61189;BMP280;47054;39.716;2.904;2023-04-03T08:07:30;100318.63;;;21.63
61189;BMP280;47054;39.716;2.904;2023-04-03T08:10:15;100307.47;;;21.58
61189;BMP280;47054;39.716;2.904;2023-04-03T08:12:59;100314.38;;;21.62
61189;BMP280;47054;39.716;2.904;2023-04-03T08:15:44;100321.34;;;21.63
61189;BMP280;47054;39.716;2.904;2023-04-03T08:18:29;100319.78;;;21.62
61189;BMP280;47054;39.716;2.904;2023-04-03T08:21:13;100312.47;;;21.63
61189;BMP280;47054;39.716;2.904;2023-04-03T08:23:58;100314.72;;;21.64
61189;BMP280;47054;39.716;2.904;2023-04-03T08:26:42;100314.38;;;21.62
61189;BMP280;47054;39.716;2.904;2023-04-03T08:29:27;100316.31;;;21.62
61189;BMP280;47054;39.716;2.904;2023-04-03T08:32:11;100318.22;;;21.61
61189;BMP280;47054;39.716;2.904;2023-04-03T08:34:56;100319.00;;;21.62
61189;BMP280;47054;39.716;2.904;2023-04-03T08:37:41;100318.22;;;21.61
61189;BMP280;47054;39.716;2.904;2023-04-03T08:40:25;100318.22;;;21.61
61189;BMP280;47054;39.716;2.904;2023-04-03T08:43:32;100314.72;;;21.64
61189;BMP280;47054;39.716;2.904;2023-04-03T08:46:22;100306.28;;;21.62
61189;BMP280;47054;39.716;2.904;2023-04-03T08:49:21;100302.03;;;21.61
61189;BMP280;47054;39.716;2.904;2023-04-03T08:52:13;100303.97;;;21.61
61189;BMP280;47054;39.716;2.904;2023-04-03T08:55:04;100310.13;;;21.61
61189;BMP280;47054;39.716;2.904;2023-04-03T08:57:53;100307.88;;;21.60
61189;BMP280;47054;39.716;2.904;2023-04-03T09:00:52;100302.47;;;21.60
61189;BMP280;47054;39.716;2.904;2023-04-03T09:03:40;100303.63;;;21.59
61189;BMP280;47054;39.716;2.904;2023-04-03T09:06:32;100304.41;;;21.59
61189;BMP280;47054;39.716;2.904;2023-04-03T09:12:22;100303.63;;;21.55
61189;BMP280;47054;39.716;2.904;2023-04-03T09:15:23;100298.59;;;21.54
61189;BMP280;47054;39.716;2.904;2023-04-03T09:18:15;100300.16;;;21.55
61189;BMP280;47054;39.716;2.904;2023-04-03T09:21:16;100293.22;;;21.54
61189;BMP280;47054;39.716;2.904;2023-04-03T09:24:04;100291.69;;;21.53
61189;BMP280;47054;39.716;2.904;2023-04-03T09:27:04;100295.53;;;21.55
61189;BMP280;47054;39.716;2.904;2023-04-03T09:29:53;100289.38;;;21.55
61189;BMP280;47054;39.716;2.904;2023-04-03T09:32:38;100288.59;;;21.54
61189;BMP280;47054;39.716;2.904;2023-04-03T09:41:16;100288.59;;;21.54
61189;BMP280;47054;39.716;2.904;2023-04-03T09:44:02;100280.91;;;21.49
61189;BMP280;47054;39.716;2.904;2023-04-03T09:46:47;100283.19;;;21.54
61189;BMP280;47054;39.716;2.904;2023-04-03T09:49:32;100282.41;;;21.54
61189;BMP280;47054;39.716;2.904;2023-04-03T09:52:23;100282.06;;;21.55
61189;BMP280;47054;39.716;2.904;2023-04-03T09:55:17;100277.03;;;21.54
61189;BMP280;47054;39.716;2.904;2023-04-03T09:58:04;100276.66;;;21.55
61189;BMP280;47054;39.716;2.904;2023-04-03T10:01:00;100279.34;;;21.55
61189;BMP280;47054;39.716;2.904;2023-04-03T10:03:45;100272.81;;;21.53
61189;BMP280;47054;39.716;2.904;2023-04-03T10:06:33;100275.09;;;21.54
61189;BMP280;47054;39.716;2.904;2023-04-03T10:09:23;100269.72;;;21.54
61189;BMP280;47054;39.716;2.904;2023-04-03T10:12:12;100268.16;;;21.53
61189;BMP280;47054;39.716;2.904;2023-04-03T10:15:00;100267.41;;;21.53
61189;BMP280;47054;39.716;2.904;2023-04-03T10:18:26;100257.78;;;21.52
61189;BMP280;47054;39.716;2.904;2023-04-03T10:21:50;100255.84;;;21.52
61189;BMP280;47054;39.716;2.904;2023-04-03T10:25:04;100261.63;;;21.51
61189;BMP280;47054;39.716;2.904;2023-04-03T10:34:37;100238.94;;;21.48
61189;BMP280;47054;39.716;2.904;2023-04-03T10:37:27;100245.06;;;21.49
61189;BMP280;47054;39.716;2.904;2023-04-03T10:46:28;100244.66;;;21.50
61189;BMP280;47054;39.716;2.904;2023-04-03T10:58:05;100239.69;;;21.49
61189;BMP280;47054;39.716;2.904;2023-04-03T11:00:51;100235.81;;;21.50
61189;BMP280;47054;39.716;2.904;2023-04-03T11:03:41;100230.41;;;21.50
61189;BMP280;47054;39.716;2.904;2023-04-03T11:06:50;100225.78;;;21.50
61189;BMP280;47054;39.716;2.904;2023-04-03T11:09:41;100227.72;;;21.50
61189;BMP280;47054;39.716;2.904;2023-04-03T11:15:54;100208.84;;;21.46
61189;BMP280;47054;39.716;2.904;2023-04-03T11:18:52;100203.09;;;21.48
61189;BMP280;47054;39.716;2.904;2023-04-03T11:21:45;100205.78;;;21.48
61189;BMP280;47054;39.716;2.904;2023-04-03T11:24:33;100193.06;;;21.48
61189;BMP280;47054;39.716;2.904;2023-04-03T11:27:22;100169.22;;;21.36
61189;BMP280;47054;39.716;2.904;2023-04-03T11:30:15;100184.97;;;21.48
61189;BMP280;47054;39.716;2.904;2023-04-03T11:33:28;100182.28;;;21.48
61189;BMP280;47054;39.716;2.904;2023-04-03T11:36:23;100178.06;;;21.44
61189;BMP280;47054;39.716;2.904;2023-04-03T11:39:23;100181.50;;;21.48
61189;BMP280;47054;39.716;2.904;2023-04-03T11:42:25;100178.03;;;21.47
61189;BMP280;47054;39.716;2.904;2023-04-03T11:54:35;100167.63;;;21.46
61189;BMP280;47054;39.716;2.904;2023-04-03T11:57:46;100167.63;;;21.46
61189;BMP280;47054;39.716;2.904;2023-04-03T12:09:35;100166.09;;;21.45
61189;BMP280;47054;39.716;2.904;2023-04-03T12:12:38;100168.81;;;21.41
61189;BMP280;47054;39.716;2.904;2023-04-03T12:15:47;100173.84;;;21.43
61189;BMP280;47054;39.716;2.904;2023-04-03T12:24:31;100164.97;;;21.42
61189;BMP280;47054;39.716;2.904;2023-04-03T12:27:21;100157.66;;;21.43
61189;BMP280;47054;39.716;2.904;2023-04-03T12:30:23;100147.25;;;21.38
61189;BMP280;47054;39.716;2.904;2023-04-03T12:34:01;100168.81;;;21.41
61189;BMP280;47054;39.716;2.904;2023-04-03T12:43:24;100167.69;;;21.39
61189;BMP280;47054;39.716;2.904;2023-04-03T12:46:16;100176.16;;;21.37
61189;BMP280;47054;39.716;2.904;2023-04-03T12:49:01;100178.84;;;21.37
61189;BMP280;47054;39.716;2.904;2023-04-03T12:51:47;100179.25;;;21.39
61189;BMP280;47054;39.716;2.904;2023-04-03T12:54:36;100173.88;;;21.39
61189;BMP280;47054;39.716;2.904;2023-04-03T12:57:24;100172.69;;;21.40
61189;BMP280;47054;39.716;2.904;2023-04-03T13:03:25;100160.38;;;21.39
61189;BMP280;47054;39.716;2.904;2023-04-03T13:06:18;100160.38;;;21.39
61189;BMP280;47054;39.716;2.904;2023-04-03T13:09:03;100161.91;;;21.40
61189;BMP280;47054;39.716;2.904;2023-04-03T13:11:54;100158.44;;;21.40
61189;BMP280;47054;39.716;2.904;2023-04-03T13:14:50;100147.63;;;21.40
61189;BMP280;47054;39.716;2.904;2023-04-03T13:17:38;100157.25;;;21.41
61189;BMP280;47054;39.716;2.904;2023-04-03T13:20:32;100146.09;;;21.42
61189;BMP280;47054;39.716;2.904;2023-04-03T13:23:20;100141.06;;;21.41
61189;BMP280;47054;39.716;2.904;2023-04-03T13:26:06;100148.00;;;21.42
61189;BMP280;47054;39.716;2.904;2023-04-03T13:28:51;100148.41;;;21.40
61189;BMP280;47054;39.716;2.904;2023-04-03T13:31:38;100149.94;;;21.41
61189;BMP280;47054;39.716;2.904;2023-04-03T13:34:27;100163.41;;;21.41
61189;BMP280;47054;39.716;2.904;2023-04-03T13:37:39;100154.19;;;21.42
61189;BMP280;47054;39.716;2.904;2023-04-03T13:40:24;100133.03;;;21.34
61189;BMP280;47054;39.716;2.904;2023-04-03T13:43:24;100145.31;;;21.42
61189;BMP280;47054;39.716;2.904;2023-04-03T13:48:56;100143.03;;;21.40
61189;BMP280;47054;39.716;2.904;2023-04-03T13:51:41;100137.63;;;21.40
61189;BMP280;47054;39.716;2.904;2023-04-03T13:54:33;100134.53;;;21.42
61189;BMP280;47054;39.716;2.904;2023-04-03T13:57:18;100127.56;;;21.41
61189;BMP280;47054;39.716;2.904;2023-04-03T14:00:21;100132.19;;;21.44
61189;BMP280;47054;39.716;2.904;2023-04-03T14:03:42;100129.13;;;21.42
61189;BMP280;47054;39.716;2.904;2023-04-03T14:06:27;100125.69;;;21.38
61189;BMP280;47054;39.716;2.904;2023-04-03T14:09:13;100122.63;;;21.39
61189;BMP280;47054;39.716;2.904;2023-04-03T14:12:04;100127.56;;;21.41
61189;BMP280;47054;39.716;2.904;2023-04-03T14:14:50;100118.75;;;21.40
61189;BMP280;47054;39.716;2.904;2023-04-03T14:17:34;100125.66;;;21.41
61189;BMP280;47054;39.716;2.904;2023-04-03T14:20:22;100122.59;;;21.43
61189;BMP280;47054;39.716;2.904;2023-04-03T14:23:07;100116.03;;;21.40
61189;BMP280;47054;39.716;2.904;2023-04-03T14:25:52;100126.44;;;21.42
61189;BMP280;47054;39.716;2.904;2023-04-03T14:28:37;100110.25;;;21.42
61189;BMP280;47054;39.716;2.904;2023-04-03T14:31:23;100119.13;;;21.42
61189;BMP280;47054;39.716;2.904;2023-04-03T14:34:12;100114.50;;;21.43
61189;BMP280;47054;39.716;2.904;2023-04-03T14:36:57;100109.09;;;21.43
61189;BMP280;47054;39.716;2.904;2023-04-03T14:39:42;100109.84;;;21.43
61189;BMP280;47054;39.716;2.904;2023-04-03T14:42:34;100111.00;;;21.46
61189;BMP280;47054;39.716;2.904;2023-04-03T14:45:19;100111.81;;;21.43
61189;BMP280;47054;39.716;2.904;2023-04-03T14:48:03;100101.03;;;21.39
61189;BMP280;47054;39.716;2.904;2023-04-03T14:50:50;100110.63;;;21.44
61189;BMP280;47054;39.716;2.904;2023-04-03T14:53:35;100097.91;;;21.41
61189;BMP280;47054;39.716;2.904;2023-04-03T14:56:23;100108.66;;;21.44
61189;BMP280;47054;39.716;2.904;2023-04-03T14:59:11;100107.16;;;21.43
61189;BMP280;47054;39.716;2.904;2023-04-03T15:01:57;100097.13;;;21.44
61189;BMP280;47054;39.716;2.904;2023-04-03T15:04:42;100102.53;;;21.44
61189;BMP280;47054;39.716;2.904;2023-04-03T15:07:28;100103.28;;;21.44
61189;BMP280;47054;39.716;2.904;2023-04-03T15:12:58;100097.88;;;21.44
61189;BMP280;47054;39.716;2.904;2023-04-03T15:15:43;100107.16;;;21.43
61189;BMP280;47054;39.716;2.904;2023-04-03T15:18:31;100094.03;;;21.45
61189;BMP280;47054;39.716;2.904;2023-04-03T15:21:17;100100.56;;;21.44
61189;BMP280;47054;39.716;2.904;2023-04-03T15:24:02;100092.47;;;21.44
61189;BMP280;47054;39.716;2.904;2023-04-03T15:26:47;100089.03;;;21.44
61189;BMP280;47054;39.716;2.904;2023-04-03T15:29:31;100090.56;;;21.45
61189;BMP280;47054;39.716;2.904;2023-04-03T15:32:16;100089.78;;;21.44
61189;BMP280;47054;39.716;2.904;2023-04-03T15:35:01;100089.78;;;21.44
61189;BMP280;47054;39.716;2.904;2023-04-03T15:37:46;100087.13;;;21.41
61189;BMP280;47054;39.716;2.904;2023-04-03T15:40:32;100088.63;;;21.45
61189;BMP280;47054;39.716;2.904;2023-04-03T15:43:17;100085.94;;;21.45
61189;BMP280;47054;39.716;2.904;2023-04-03T15:46:02;100085.16;;;21.45
61189;BMP280;47054;39.716;2.904;2023-04-03T15:48:47;100085.94;;;21.45
61189;BMP280;47054;39.716;2.904;2023-04-03T15:51:33;100087.88;;;21.45
61189;BMP280;47054;39.716;2.904;2023-04-03T15:54:18;100081.69;;;21.44
61189;BMP280;47054;39.716;2.904;2023-04-03T15:57:02;100082.47;;;21.45
61189;BMP280;47054;39.716;2.904;2023-04-03T15:59:47;100077.84;;;21.45
61189;BMP280;47054;39.716;2.904;2023-04-03T16:02:32;100075.16;;;21.45
61189;BMP280;47054;39.716;2.904;2023-04-03T16:05:17;100064.38;;;21.45
61189;BMP280;47054;39.716;2.904;2023-04-03T16:08:02;100060.88;;;21.45
61189;BMP280;47054;39.716;2.904;2023-04-03T16:10:47;100066.28;;;21.45
61189;BMP280;47054;39.716;2.904;2023-04-03T16:13:32;100067.06;;;21.45
61189;BMP280;47054;39.716;2.904;2023-04-03T16:16:18;100063.59;;;21.45
61189;BMP280;47054;39.716;2.904;2023-04-03T16:19:03;100063.59;;;21.45
61189;BMP280;47054;39.716;2.904;2023-04-03T16:21:48;100070.53;;;21.46
61189;BMP280;47054;39.716;2.904;2023-04-03T16:24:33;100075.16;;;21.45
61189;BMP280;47054;39.716;2.904;2023-04-03T16:27:20;100068.97;;;21.45
61189;BMP280;47054;39.716;2.904;2023-04-03T16:30:06;100068.97;;;21.45
61189;BMP280;47054;39.716;2.904;2023-04-03T16:32:51;100065.13;;;21.46
61189;BMP280;47054;39.716;2.904;2023-04-03T16:35:36;100065.88;;;21.46
61189;BMP280;47054;39.716;2.904;2023-04-03T16:38:21;100067.06;;;21.45
61189;BMP280;47054;39.716;2.904;2023-04-03T16:41:06;100067.06;;;21.45
61189;BMP280;47054;39.716;2.904;2023-04-03T16:43:51;100066.28;;;21.45
61189;BMP280;47054;39.716;2.904;2023-04-03T16:46:35;100065.88;;;21.46
61189;BMP280;47054;39.716;2.904;2023-04-03T16:49:20;100068.56;;;21.46
61189;BMP280;47054;39.716;2.904;2023-04-03T16:52:05;100063.59;;;21.45
61189;BMP280;47054;39.716;2.904;2023-04-03T16:54:49;100057.03;;;21.46
61189;BMP280;47054;39.716;2.904;2023-04-03T16:57:39;100057.41;;;21.44
61189;BMP280;47054;39.716;2.904;2023-04-03T17:00:23;100057.03;;;21.46
61189;BMP280;47054;39.716;2.904;2023-04-03T17:03:08;100054.34;;;21.46
61189;BMP280;47054;39.716;2.904;2023-04-03T17:05:53;100060.47;;;21.46
61189;BMP280;47054;39.716;2.904;2023-04-03T17:08:37;100059.75;;;21.46
61189;BMP280;47054;39.716;2.904;2023-04-03T17:11:22;100048.94;;;21.46
61189;BMP280;47054;39.716;2.904;2023-04-03T17:14:06;100060.47;;;21.46